sensor_id;sensor_type;location;lat;lon;timestamp;temperature;humidity
11824;DHT22;5969;50.780;7.726;2023-07-08T00:02:11;19.10;91.80
11824;DHT22;5969;50.780;7.726;2023-07-08T00:04:38;19.10;92.00
11824;DHT22;5969;50.780;7.726;2023-07-08T00:07:05;19.00;91.90
11824;DHT22;5969;50.780;7.726;2023-07-08T00:09:35;19.00;91.80
11824;DHT22;5969;50.780;7.726;2023-07-08T00:12:07;18.90;92.20
11824;DHT22;5969;50.780;7.726;2023-07-08T00:14:34;18.80;92.90
11824;DHT22;5969;50.780;7.726;2023-07-08T00:17:04;18.70;93.20
11824;DHT22;5969;50.780;7.726;2023-07-08T00:19:31;18.60;93.70
11824;DHT22;5969;50.780;7.726;2023-07-08T00:21:57;18.60;93.00
11824;DHT22;5969;50.780;7.726;2023-07-08T00:24:24;18.60;92.80
11824;DHT22;5969;50.780;7.726;2023-07-08T00:26:51;18.60;92.80
11824;DHT22;5969;50.780;7.726;2023-07-08T00:29:18;18.60;92.60
11824;DHT22;5969;50.780;7.726;2023-07-08T00:31:44;18.60;92.80
11824;DHT22;5969;50.780;7.726;2023-07-08T00:34:13;18.70;92.70
11824;DHT22;5969;50.780;7.726;2023-07-08T00:36:41;18.60;92.70
11824;DHT22;5969;50.780;7.726;2023-07-08T00:39:14;18.60;92.90
11824;DHT22;5969;50.780;7.726;2023-07-08T00:41:42;18.60;93.40
11824;DHT22;5969;50.780;7.726;2023-07-08T00:44:11;18.50;93.30
11824;DHT22;5969;50.780;7.726;2023-07-08T00:46:46;18.30;93.40
11824;DHT22;5969;50.780;7.726;2023-07-08T00:49:36;18.10;93.50
11824;DHT22;5969;50.780;7.726;2023-07-08T00:52:21;17.90;94.10
11824;DHT22;5969;50.780;7.726;2023-07-08T00:54:52;17.60;94.50
11824;DHT22;5969;50.780;7.726;2023-07-08T00:57:20;17.60;94.60
11824;DHT22;5969;50.780;7.726;2023-07-08T00:59:51;17.60;95.00
11824;DHT22;5969;50.780;7.726;2023-07-08T01:02:21;17.50;95.20
11824;DHT22;5969;50.780;7.726;2023-07-08T01:04:54;17.50;95.10
11824;DHT22;5969;50.780;7.726;2023-07-08T01:07:23;17.40;95.60
11824;DHT22;5969;50.780;7.726;2023-07-08T01:09:53;17.30;95.60
11824;DHT22;5969;50.780;7.726;2023-07-08T01:12:29;17.30;95.80
11824;DHT22;5969;50.780;7.726;2023-07-08T01:14:59;17.30;96.00
11824;DHT22;5969;50.780;7.726;2023-07-08T01:17:28;17.20;95.60
11824;DHT22;5969;50.780;7.726;2023-07-08T01:19:59;17.20;95.30
11824;DHT22;5969;50.780;7.726;2023-07-08T01:22:31;17.30;95.20
11824;DHT22;5969;50.780;7.726;2023-07-08T01:24:58;17.30;94.80
11824;DHT22;5969;50.780;7.726;2023-07-08T01:27:30;17.40;95.10
11824;DHT22;5969;50.780;7.726;2023-07-08T01:29:57;17.50;95.30
11824;DHT22;5969;50.780;7.726;2023-07-08T01:32:24;17.50;95.30
11824;DHT22;5969;50.780;7.726;2023-07-08T01:34:53;17.40;95.90
11824;DHT22;5969;50.780;7.726;2023-07-08T01:37:31;17.40;96.20
11824;DHT22;5969;50.780;7.726;2023-07-08T01:40:14;17.40;96.40
11824;DHT22;5969;50.780;7.726;2023-07-08T01:42:41;17.40;95.50
11824;DHT22;5969;50.780;7.726;2023-07-08T01:45:10;17.50;95.30
11824;DHT22;5969;50.780;7.726;2023-07-08T01:47:38;17.50;95.00
11824;DHT22;5969;50.780;7.726;2023-07-08T01:50:07;17.60;94.80
11824;DHT22;5969;50.780;7.726;2023-07-08T01:52:36;17.60;94.90
11824;DHT22;5969;50.780;7.726;2023-07-08T01:55:04;17.60;94.60
11824;DHT22;5969;50.780;7.726;2023-07-08T01:57:31;17.60;94.70
11824;DHT22;5969;50.780;7.726;2023-07-08T01:59:58;17.70;94.70
11824;DHT22;5969;50.780;7.726;2023-07-08T02:02:25;17.70;94.90
11824;DHT22;5969;50.780;7.726;2023-07-08T02:04:52;17.70;94.80
11824;DHT22;5969;50.780;7.726;2023-07-08T02:07:18;17.70;94.80
11824;DHT22;5969;50.780;7.726;2023-07-08T02:09:46;17.70;94.80
11824;DHT22;5969;50.780;7.726;2023-07-08T02:12:13;17.60;94.20
11824;DHT22;5969;50.780;7.726;2023-07-08T02:14:40;17.60;94.60
11824;DHT22;5969;50.780;7.726;2023-07-08T02:17:07;17.70;94.70
11824;DHT22;5969;50.780;7.726;2023-07-08T02:19:32;17.70;94.60
11824;DHT22;5969;50.780;7.726;2023-07-08T02:21:59;17.60;94.80
11824;DHT22;5969;50.780;7.726;2023-07-08T02:24:26;17.60;94.80
11824;DHT22;5969;50.780;7.726;2023-07-08T02:26:54;17.70;95.00
11824;DHT22;5969;50.780;7.726;2023-07-08T02:29:21;17.70;94.90
11824;DHT22;5969;50.780;7.726;2023-07-08T02:31:48;17.70;95.00
11824;DHT22;5969;50.780;7.726;2023-07-08T02:34:15;17.70;94.80
11824;DHT22;5969;50.780;7.726;2023-07-08T02:36:41;17.60;94.70
11824;DHT22;5969;50.780;7.726;2023-07-08T02:39:09;17.60;94.80
11824;DHT22;5969;50.780;7.726;2023-07-08T02:41:36;17.60;95.10
11824;DHT22;5969;50.780;7.726;2023-07-08T02:44:05;17.60;95.00
11824;DHT22;5969;50.780;7.726;2023-07-08T02:46:31;17.50;95.10
11824;DHT22;5969;50.780;7.726;2023-07-08T02:48:58;17.50;95.10
11824;DHT22;5969;50.780;7.726;2023-07-08T02:51:25;17.60;95.00
11824;DHT22;5969;50.780;7.726;2023-07-08T02:53:52;17.50;95.10
11824;DHT22;5969;50.780;7.726;2023-07-08T02:56:18;17.50;95.20
11824;DHT22;5969;50.780;7.726;2023-07-08T02:58:46;17.50;95.20
11824;DHT22;5969;50.780;7.726;2023-07-08T03:01:14;17.50;95.00
11824;DHT22;5969;50.780;7.726;2023-07-08T03:03:43;17.50;95.10
11824;DHT22;5969;50.780;7.726;2023-07-08T03:06:10;17.40;94.90
11824;DHT22;5969;50.780;7.726;2023-07-08T03:08:37;17.40;95.20
11824;DHT22;5969;50.780;7.726;2023-07-08T03:11:05;17.40;95.30
11824;DHT22;5969;50.780;7.726;2023-07-08T03:13:32;17.30;95.20
11824;DHT22;5969;50.780;7.726;2023-07-08T03:16:00;17.40;95.60
11824;DHT22;5969;50.780;7.726;2023-07-08T03:18:29;17.40;95.30
11824;DHT22;5969;50.780;7.726;2023-07-08T03:20:57;17.40;95.50
11824;DHT22;5969;50.780;7.726;2023-07-08T03:23:24;17.30;95.50
11824;DHT22;5969;50.780;7.726;2023-07-08T03:25:51;17.30;95.30
11824;DHT22;5969;50.780;7.726;2023-07-08T03:28:18;17.30;95.50
11824;DHT22;5969;50.780;7.726;2023-07-08T03:30:45;17.30;95.60
11824;DHT22;5969;50.780;7.726;2023-07-08T03:33:17;17.40;95.40
11824;DHT22;5969;50.780;7.726;2023-07-08T03:35:45;17.40;95.50
11824;DHT22;5969;50.780;7.726;2023-07-08T03:38:12;17.40;95.40
11824;DHT22;5969;50.780;7.726;2023-07-08T03:40:39;17.40;95.10
11824;DHT22;5969;50.780;7.726;2023-07-08T03:43:05;17.30;95.20
11824;DHT22;5969;50.780;7.726;2023-07-08T03:45:32;17.30;95.20
11824;DHT22;5969;50.780;7.726;2023-07-08T03:47:59;17.30;95.00
11824;DHT22;5969;50.780;7.726;2023-07-08T03:50:26;17.30;95.50
11824;DHT22;5969;50.780;7.726;2023-07-08T03:52:55;17.40;95.30
11824;DHT22;5969;50.780;7.726;2023-07-08T03:55:23;17.40;95.40
11824;DHT22;5969;50.780;7.726;2023-07-08T03:57:49;17.40;95.40
11824;DHT22;5969;50.780;7.726;2023-07-08T04:00:17;17.40;95.10
11824;DHT22;5969;50.780;7.726;2023-07-08T04:02:44;17.40;95.30
11824;DHT22;5969;50.780;7.726;2023-07-08T04:05:14;17.50;95.50
11824;DHT22;5969;50.780;7.726;2023-07-08T04:07:41;17.50;95.00
11824;DHT22;5969;50.780;7.726;2023-07-08T04:10:10;17.50;95.50
11824;DHT22;5969;50.780;7.726;2023-07-08T04:12:37;17.50;95.40
11824;DHT22;5969;50.780;7.726;2023-07-08T04:15:06;17.60;95.50
11824;DHT22;5969;50.780;7.726;2023-07-08T04:17:57;17.60;95.40
11824;DHT22;5969;50.780;7.726;2023-07-08T04:20:24;17.60;95.40
11824;DHT22;5969;50.780;7.726;2023-07-08T04:22:51;17.70;95.30
11824;DHT22;5969;50.780;7.726;2023-07-08T04:25:19;17.70;95.20
11824;DHT22;5969;50.780;7.726;2023-07-08T04:27:46;17.70;95.20
11824;DHT22;5969;50.780;7.726;2023-07-08T04:30:20;17.70;95.10
11824;DHT22;5969;50.780;7.726;2023-07-08T04:32:49;17.80;95.00
11824;DHT22;5969;50.780;7.726;2023-07-08T04:35:16;17.80;95.10
11824;DHT22;5969;50.780;7.726;2023-07-08T04:37:42;17.80;95.00
11824;DHT22;5969;50.780;7.726;2023-07-08T04:40:16;17.90;95.10
11824;DHT22;5969;50.780;7.726;2023-07-08T04:42:44;18.00;95.00
11824;DHT22;5969;50.780;7.726;2023-07-08T04:45:14;18.10;95.10
11824;DHT22;5969;50.780;7.726;2023-07-08T04:47:41;18.20;95.00
11824;DHT22;5969;50.780;7.726;2023-07-08T04:50:08;18.30;95.00
11824;DHT22;5969;50.780;7.726;2023-07-08T04:52:36;18.50;95.10
11824;DHT22;5969;50.780;7.726;2023-07-08T04:55:03;18.50;95.00
11824;DHT22;5969;50.780;7.726;2023-07-08T04:57:30;18.60;94.90
11824;DHT22;5969;50.780;7.726;2023-07-08T04:59:58;18.70;94.80
11824;DHT22;5969;50.780;7.726;2023-07-08T05:02:25;18.90;94.60
11824;DHT22;5969;50.780;7.726;2023-07-08T05:04:52;18.90;94.40
11824;DHT22;5969;50.780;7.726;2023-07-08T05:07:19;19.10;94.40
11824;DHT22;5969;50.780;7.726;2023-07-08T05:09:45;19.30;94.50
11824;DHT22;5969;50.780;7.726;2023-07-08T05:12:12;19.40;94.50
11824;DHT22;5969;50.780;7.726;2023-07-08T05:14:39;19.50;94.30
11824;DHT22;5969;50.780;7.726;2023-07-08T05:17:07;19.50;94.10
11824;DHT22;5969;50.780;7.726;2023-07-08T05:19:34;19.60;93.90
11824;DHT22;5969;50.780;7.726;2023-07-08T05:22:01;19.70;94.10
11824;DHT22;5969;50.780;7.726;2023-07-08T05:24:28;19.80;93.90
11824;DHT22;5969;50.780;7.726;2023-07-08T05:26:55;19.80;93.80
11824;DHT22;5969;50.780;7.726;2023-07-08T05:29:21;19.90;94.10
11824;DHT22;5969;50.780;7.726;2023-07-08T05:31:48;20.00;94.10
11824;DHT22;5969;50.780;7.726;2023-07-08T05:34:16;20.00;94.10
11824;DHT22;5969;50.780;7.726;2023-07-08T05:36:43;20.10;94.00
11824;DHT22;5969;50.780;7.726;2023-07-08T05:39:10;20.20;93.70
11824;DHT22;5969;50.780;7.726;2023-07-08T05:41:37;20.20;93.60
11824;DHT22;5969;50.780;7.726;2023-07-08T05:44:04;20.30;93.70
11824;DHT22;5969;50.780;7.726;2023-07-08T05:46:30;20.40;93.70
11824;DHT22;5969;50.780;7.726;2023-07-08T05:48:57;20.40;93.80
11824;DHT22;5969;50.780;7.726;2023-07-08T05:51:25;20.50;93.70
11824;DHT22;5969;50.780;7.726;2023-07-08T05:53:52;20.50;93.80
11824;DHT22;5969;50.780;7.726;2023-07-08T05:56:19;20.50;94.10
11824;DHT22;5969;50.780;7.726;2023-07-08T05:58:45;20.60;94.10
11824;DHT22;5969;50.780;7.726;2023-07-08T06:01:12;20.60;94.10
11824;DHT22;5969;50.780;7.726;2023-07-08T06:03:39;20.70;94.00
11824;DHT22;5969;50.780;7.726;2023-07-08T06:06:06;20.80;93.80
11824;DHT22;5969;50.780;7.726;2023-07-08T06:08:34;20.90;93.70
11824;DHT22;5969;50.780;7.726;2023-07-08T06:11:01;20.90;93.50
11824;DHT22;5969;50.780;7.726;2023-07-08T06:13:27;20.80;93.30
11824;DHT22;5969;50.780;7.726;2023-07-08T06:15:54;20.80;93.60
11824;DHT22;5969;50.780;7.726;2023-07-08T06:18:21;20.80;93.70
11824;DHT22;5969;50.780;7.726;2023-07-08T06:20:52;20.70;93.80
11824;DHT22;5969;50.780;7.726;2023-07-08T06:23:19;20.40;94.10
11824;DHT22;5969;50.780;7.726;2023-07-08T06:25:47;20.30;94.70
11824;DHT22;5969;50.780;7.726;2023-07-08T06:28:14;20.30;94.60
11824;DHT22;5969;50.780;7.726;2023-07-08T06:30:41;20.30;94.80
11824;DHT22;5969;50.780;7.726;2023-07-08T06:33:08;20.40;94.70
11824;DHT22;5969;50.780;7.726;2023-07-08T06:35:34;20.40;94.40
11824;DHT22;5969;50.780;7.726;2023-07-08T06:38:01;20.50;94.40
11824;DHT22;5969;50.780;7.726;2023-07-08T06:40:28;20.70;94.40
11824;DHT22;5969;50.780;7.726;2023-07-08T06:42:57;20.80;94.60
11824;DHT22;5969;50.780;7.726;2023-07-08T06:45:24;20.90;94.80
11824;DHT22;5969;50.780;7.726;2023-07-08T06:47:50;21.00;94.60
11824;DHT22;5969;50.780;7.726;2023-07-08T06:50:17;21.10;94.30
11824;DHT22;5969;50.780;7.726;2023-07-08T06:52:44;21.20;94.50
11824;DHT22;5969;50.780;7.726;2023-07-08T06:55:11;21.30;94.40
11824;DHT22;5969;50.780;7.726;2023-07-08T06:57:39;21.30;94.20
11824;DHT22;5969;50.780;7.726;2023-07-08T07:00:10;21.40;94.20
11824;DHT22;5969;50.780;7.726;2023-07-08T07:02:37;21.50;94.40
11824;DHT22;5969;50.780;7.726;2023-07-08T07:05:06;21.70;94.30
11824;DHT22;5969;50.780;7.726;2023-07-08T07:07:33;21.80;94.10
11824;DHT22;5969;50.780;7.726;2023-07-08T07:10:00;21.90;94.10
11824;DHT22;5969;50.780;7.726;2023-07-08T07:12:27;22.00;94.00
11824;DHT22;5969;50.780;7.726;2023-07-08T07:14:54;22.00;94.20
11824;DHT22;5969;50.780;7.726;2023-07-08T07:17:23;22.10;94.00
11824;DHT22;5969;50.780;7.726;2023-07-08T07:19:50;22.20;93.80
11824;DHT22;5969;50.780;7.726;2023-07-08T07:22:17;22.40;94.30
11824;DHT22;5969;50.780;7.726;2023-07-08T07:24:44;22.50;93.80
11824;DHT22;5969;50.780;7.726;2023-07-08T07:27:11;22.60;93.80
11824;DHT22;5969;50.780;7.726;2023-07-08T07:29:41;22.70;93.80
11824;DHT22;5969;50.780;7.726;2023-07-08T07:32:08;22.80;93.70
11824;DHT22;5969;50.780;7.726;2023-07-08T07:34:37;22.90;93.60
11824;DHT22;5969;50.780;7.726;2023-07-08T07:37:05;23.10;93.60
11824;DHT22;5969;50.780;7.726;2023-07-08T07:39:32;23.20;93.60
11824;DHT22;5969;50.780;7.726;2023-07-08T07:41:59;23.40;93.60
11824;DHT22;5969;50.780;7.726;2023-07-08T07:44:25;23.60;93.30
11824;DHT22;5969;50.780;7.726;2023-07-08T07:46:53;23.90;93.50
11824;DHT22;5969;50.780;7.726;2023-07-08T07:49:20;24.10;93.00
11824;DHT22;5969;50.780;7.726;2023-07-08T07:51:49;24.30;93.00
11824;DHT22;5969;50.780;7.726;2023-07-08T07:54:16;24.50;92.50
11824;DHT22;5969;50.780;7.726;2023-07-08T07:56:43;24.80;92.60
11824;DHT22;5969;50.780;7.726;2023-07-08T07:59:10;25.10;92.30
11824;DHT22;5969;50.780;7.726;2023-07-08T08:01:37;25.40;92.30
11824;DHT22;5969;50.780;7.726;2023-07-08T08:04:04;25.60;91.70
11824;DHT22;5969;50.780;7.726;2023-07-08T08:06:30;25.90;91.40
11824;DHT22;5969;50.780;7.726;2023-07-08T08:08:59;26.10;91.70
11824;DHT22;5969;50.780;7.726;2023-07-08T08:11:26;26.30;89.90
11824;DHT22;5969;50.780;7.726;2023-07-08T08:13:52;26.30;90.70
11824;DHT22;5969;50.780;7.726;2023-07-08T08:16:20;26.30;90.80
11824;DHT22;5969;50.780;7.726;2023-07-08T08:18:47;26.30;91.00
11824;DHT22;5969;50.780;7.726;2023-07-08T08:21:13;26.50;91.00
11824;DHT22;5969;50.780;7.726;2023-07-08T08:23:40;26.40;90.00
11824;DHT22;5969;50.780;7.726;2023-07-08T08:26:08;26.20;87.90
11824;DHT22;5969;50.780;7.726;2023-07-08T08:28:35;26.00;88.10
11824;DHT22;5969;50.780;7.726;2023-07-08T08:31:02;25.80;84.90
11824;DHT22;5969;50.780;7.726;2023-07-08T08:33:29;25.80;84.20
11824;DHT22;5969;50.780;7.726;2023-07-08T08:35:55;25.80;85.20
11824;DHT22;5969;50.780;7.726;2023-07-08T08:38:22;25.90;86.20
11824;DHT22;5969;50.780;7.726;2023-07-08T08:40:49;26.00;85.60
11824;DHT22;5969;50.780;7.726;2023-07-08T08:43:20;26.10;85.20
11824;DHT22;5969;50.780;7.726;2023-07-08T08:45:53;26.20;84.20
11824;DHT22;5969;50.780;7.726;2023-07-08T08:48:21;26.30;83.10
11824;DHT22;5969;50.780;7.726;2023-07-08T08:50:51;26.40;83.30
11824;DHT22;5969;50.780;7.726;2023-07-08T08:53:20;26.50;85.50
11824;DHT22;5969;50.780;7.726;2023-07-08T08:55:52;26.50;85.90
11824;DHT22;5969;50.780;7.726;2023-07-08T08:58:30;26.40;84.20
11824;DHT22;5969;50.780;7.726;2023-07-08T09:01:02;26.50;84.20
11824;DHT22;5969;50.780;7.726;2023-07-08T09:03:47;26.50;84.90
11824;DHT22;5969;50.780;7.726;2023-07-08T09:06:19;26.60;83.90
11824;DHT22;5969;50.780;7.726;2023-07-08T09:08:50;26.80;84.70
11824;DHT22;5969;50.780;7.726;2023-07-08T09:12:02;26.90;81.80
11824;DHT22;5969;50.780;7.726;2023-07-08T09:14:42;27.00;83.60
11824;DHT22;5969;50.780;7.726;2023-07-08T09:17:38;27.20;81.80
11824;DHT22;5969;50.780;7.726;2023-07-08T09:20:22;27.20;82.70
11824;DHT22;5969;50.780;7.726;2023-07-08T09:22:56;27.30;81.30
11824;DHT22;5969;50.780;7.726;2023-07-08T09:25:26;27.50;80.80
11824;DHT22;5969;50.780;7.726;2023-07-08T09:27:55;27.60;79.60
11824;DHT22;5969;50.780;7.726;2023-07-08T09:30:32;27.60;80.20
11824;DHT22;5969;50.780;7.726;2023-07-08T09:33:02;27.70;79.80
11824;DHT22;5969;50.780;7.726;2023-07-08T09:35:39;27.90;80.30
11824;DHT22;5969;50.780;7.726;2023-07-08T09:38:07;27.90;78.10
11824;DHT22;5969;50.780;7.726;2023-07-08T09:40:34;28.00;79.20
11824;DHT22;5969;50.780;7.726;2023-07-08T09:45:47;28.30;79.00
11824;DHT22;5969;50.780;7.726;2023-07-08T09:48:16;28.40;78.80
11824;DHT22;5969;50.780;7.726;2023-07-08T09:50:51;28.50;78.50
11824;DHT22;5969;50.780;7.726;2023-07-08T09:53:18;28.50;78.70
11824;DHT22;5969;50.780;7.726;2023-07-08T09:55:45;28.60;77.30
11824;DHT22;5969;50.780;7.726;2023-07-08T09:58:16;28.60;78.30
11824;DHT22;5969;50.780;7.726;2023-07-08T10:00:51;28.90;79.00
11824;DHT22;5969;50.780;7.726;2023-07-08T10:03:22;28.90;76.40
11824;DHT22;5969;50.780;7.726;2023-07-08T10:05:49;28.90;77.60
11824;DHT22;5969;50.780;7.726;2023-07-08T10:08:20;29.00;76.30
11824;DHT22;5969;50.780;7.726;2023-07-08T10:10:53;29.00;76.90
11824;DHT22;5969;50.780;7.726;2023-07-08T10:13:38;28.90;75.90
11824;DHT22;5969;50.780;7.726;2023-07-08T10:16:13;29.00;76.80
11824;DHT22;5969;50.780;7.726;2023-07-08T10:18:41;29.00;76.90
11824;DHT22;5969;50.780;7.726;2023-07-08T10:21:13;29.00;77.10
11824;DHT22;5969;50.780;7.726;2023-07-08T10:23:51;29.10;78.00
11824;DHT22;5969;50.780;7.726;2023-07-08T10:26:25;29.20;77.10
11824;DHT22;5969;50.780;7.726;2023-07-08T10:29:02;29.10;76.40
11824;DHT22;5969;50.780;7.726;2023-07-08T10:31:40;29.20;77.40
11824;DHT22;5969;50.780;7.726;2023-07-08T10:34:23;29.30;77.00
11824;DHT22;5969;50.780;7.726;2023-07-08T10:36:55;29.30;77.50
11824;DHT22;5969;50.780;7.726;2023-07-08T10:39:42;29.50;76.10
11824;DHT22;5969;50.780;7.726;2023-07-08T10:42:18;29.70;77.60
11824;DHT22;5969;50.780;7.726;2023-07-08T10:44:56;29.70;75.50
11824;DHT22;5969;50.780;7.726;2023-07-08T10:47:37;29.50;76.10
11824;DHT22;5969;50.780;7.726;2023-07-08T10:50:25;29.60;76.90
11824;DHT22;5969;50.780;7.726;2023-07-08T10:52:59;29.70;77.10
11824;DHT22;5969;50.780;7.726;2023-07-08T10:55:35;29.90;75.60
11824;DHT22;5969;50.780;7.726;2023-07-08T10:58:18;30.10;75.90
11824;DHT22;5969;50.780;7.726;2023-07-08T11:00:56;30.30;76.60
11824;DHT22;5969;50.780;7.726;2023-07-08T11:03:49;30.40;75.60
11824;DHT22;5969;50.780;7.726;2023-07-08T11:06:24;30.50;75.90
11824;DHT22;5969;50.780;7.726;2023-07-08T11:08:55;30.50;73.60
11824;DHT22;5969;50.780;7.726;2023-07-08T11:11:31;30.70;74.80
11824;DHT22;5969;50.780;7.726;2023-07-08T11:14:04;30.70;74.10
11824;DHT22;5969;50.780;7.726;2023-07-08T11:16:37;30.80;74.20
11824;DHT22;5969;50.780;7.726;2023-07-08T11:19:13;30.80;73.50
11824;DHT22;5969;50.780;7.726;2023-07-08T11:21:46;30.90;73.50
11824;DHT22;5969;50.780;7.726;2023-07-08T11:24:21;31.00;74.40
11824;DHT22;5969;50.780;7.726;2023-07-08T11:26:50;31.10;75.10
11824;DHT22;5969;50.780;7.726;2023-07-08T11:29:21;31.30;74.20
11824;DHT22;5969;50.780;7.726;2023-07-08T11:31:49;31.30;74.20
11824;DHT22;5969;50.780;7.726;2023-07-08T11:34:19;31.30;73.40
11824;DHT22;5969;50.780;7.726;2023-07-08T11:36:47;31.30;73.90
11824;DHT22;5969;50.780;7.726;2023-07-08T11:39:31;31.10;73.70
11824;DHT22;5969;50.780;7.726;2023-07-08T11:42:21;31.10;75.00
11824;DHT22;5969;50.780;7.726;2023-07-08T11:44:52;31.20;74.20
11824;DHT22;5969;50.780;7.726;2023-07-08T11:47:24;31.20;74.60
11824;DHT22;5969;50.780;7.726;2023-07-08T11:49:53;31.30;74.70
11824;DHT22;5969;50.780;7.726;2023-07-08T11:52:22;31.50;73.60
11824;DHT22;5969;50.780;7.726;2023-07-08T11:54:56;31.50;74.90
11824;DHT22;5969;50.780;7.726;2023-07-08T11:57:29;31.50;74.60
11824;DHT22;5969;50.780;7.726;2023-07-08T12:00:15;31.40;73.80
11824;DHT22;5969;50.780;7.726;2023-07-08T12:02:52;31.50;76.80
11824;DHT22;5969;50.780;7.726;2023-07-08T12:05:30;31.70;73.90
11824;DHT22;5969;50.780;7.726;2023-07-08T12:07:58;32.00;74.70
11824;DHT22;5969;50.780;7.726;2023-07-08T12:10:28;32.20;74.70
11824;DHT22;5969;50.780;7.726;2023-07-08T12:12:57;32.10;75.50
11824;DHT22;5969;50.780;7.726;2023-07-08T12:15:25;32.00;74.90
11824;DHT22;5969;50.780;7.726;2023-07-08T12:17:55;32.20;75.30
11824;DHT22;5969;50.780;7.726;2023-07-08T12:20:29;32.20;75.30
11824;DHT22;5969;50.780;7.726;2023-07-08T12:22:56;32.30;74.30
11824;DHT22;5969;50.780;7.726;2023-07-08T12:25:27;32.40;75.00
11824;DHT22;5969;50.780;7.726;2023-07-08T12:27:54;32.60;75.00
11824;DHT22;5969;50.780;7.726;2023-07-08T12:30:21;32.80;75.20
11824;DHT22;5969;50.780;7.726;2023-07-08T12:32:47;32.70;75.10
11824;DHT22;5969;50.780;7.726;2023-07-08T12:35:22;32.40;75.60
11824;DHT22;5969;50.780;7.726;2023-07-08T12:37:52;32.50;74.50
11824;DHT22;5969;50.780;7.726;2023-07-08T12:40:21;32.30;73.90
11824;DHT22;5969;50.780;7.726;2023-07-08T12:42:49;32.20;73.90
11824;DHT22;5969;50.780;7.726;2023-07-08T12:45:18;32.50;74.30
11824;DHT22;5969;50.780;7.726;2023-07-08T12:47:46;32.70;73.60
11824;DHT22;5969;50.780;7.726;2023-07-08T12:50:14;32.70;75.20
11824;DHT22;5969;50.780;7.726;2023-07-08T12:52:43;32.90;73.60
11824;DHT22;5969;50.780;7.726;2023-07-08T12:55:13;32.70;73.00
11824;DHT22;5969;50.780;7.726;2023-07-08T12:57:42;32.70;74.60
11824;DHT22;5969;50.780;7.726;2023-07-08T13:00:14;33.00;73.70
11824;DHT22;5969;50.780;7.726;2023-07-08T13:02:44;33.10;73.10
11824;DHT22;5969;50.780;7.726;2023-07-08T13:05:12;32.90;74.70
11824;DHT22;5969;50.780;7.726;2023-07-08T13:07:41;32.80;74.50
11824;DHT22;5969;50.780;7.726;2023-07-08T13:10:17;33.10;73.00
11824;DHT22;5969;50.780;7.726;2023-07-08T13:12:46;33.00;73.80
11824;DHT22;5969;50.780;7.726;2023-07-08T13:15:19;32.30;74.10
11824;DHT22;5969;50.780;7.726;2023-07-08T13:17:48;32.40;75.10
11824;DHT22;5969;50.780;7.726;2023-07-08T13:20:15;32.70;73.90
11824;DHT22;5969;50.780;7.726;2023-07-08T13:22:46;32.90;74.00
11824;DHT22;5969;50.780;7.726;2023-07-08T13:25:18;33.00;73.10
11824;DHT22;5969;50.780;7.726;2023-07-08T13:27:55;33.00;73.80
11824;DHT22;5969;50.780;7.726;2023-07-08T13:30:26;33.30;73.90
11824;DHT22;5969;50.780;7.726;2023-07-08T13:32:53;33.50;74.20
11824;DHT22;5969;50.780;7.726;2023-07-08T13:35:28;33.90;73.70
11824;DHT22;5969;50.780;7.726;2023-07-08T13:38:00;34.10;73.20
11824;DHT22;5969;50.780;7.726;2023-07-08T13:40:29;34.20;73.80
11824;DHT22;5969;50.780;7.726;2023-07-08T13:42:57;34.30;71.80
11824;DHT22;5969;50.780;7.726;2023-07-08T13:45:26;34.30;73.30
11824;DHT22;5969;50.780;7.726;2023-07-08T13:48:00;34.40;72.00
11824;DHT22;5969;50.780;7.726;2023-07-08T13:50:31;34.20;71.90
11824;DHT22;5969;50.780;7.726;2023-07-08T13:53:01;34.10;72.80
11824;DHT22;5969;50.780;7.726;2023-07-08T13:55:29;33.50;72.90
11824;DHT22;5969;50.780;7.726;2023-07-08T13:57:59;33.10;73.10
11824;DHT22;5969;50.780;7.726;2023-07-08T14:03:52;34.10;72.90
11824;DHT22;5969;50.780;7.726;2023-07-08T14:06:21;35.50;71.90
11824;DHT22;5969;50.780;7.726;2023-07-08T14:08:50;38.10;70.60
11824;DHT22;5969;50.780;7.726;2023-07-08T14:11:19;38.90;66.70
11824;DHT22;5969;50.780;7.726;2023-07-08T14:13:47;39.30;68.20
11824;DHT22;5969;50.780;7.726;2023-07-08T14:16:23;41.00;64.30
11824;DHT22;5969;50.780;7.726;2023-07-08T14:18:50;41.80;67.00
11824;DHT22;5969;50.780;7.726;2023-07-08T14:21:19;42.80;64.70
11824;DHT22;5969;50.780;7.726;2023-07-08T14:23:46;43.50;62.10
11824;DHT22;5969;50.780;7.726;2023-07-08T14:26:14;42.60;63.00
11824;DHT22;5969;50.780;7.726;2023-07-08T14:28:42;43.10;62.00
11824;DHT22;5969;50.780;7.726;2023-07-08T14:31:10;43.30;62.10
11824;DHT22;5969;50.780;7.726;2023-07-08T14:33:38;44.30;61.20
11824;DHT22;5969;50.780;7.726;2023-07-08T14:36:07;43.70;60.30
11824;DHT22;5969;50.780;7.726;2023-07-08T14:38:35;42.70;61.30
11824;DHT22;5969;50.780;7.726;2023-07-08T14:41:01;42.30;60.60
11824;DHT22;5969;50.780;7.726;2023-07-08T14:43:30;43.00;61.40
11824;DHT22;5969;50.780;7.726;2023-07-08T14:46:02;43.10;62.10
11824;DHT22;5969;50.780;7.726;2023-07-08T14:48:31;42.20;62.40
11824;DHT22;5969;50.780;7.726;2023-07-08T14:50:59;40.70;62.80
11824;DHT22;5969;50.780;7.726;2023-07-08T14:53:26;41.20;62.40
11824;DHT22;5969;50.780;7.726;2023-07-08T14:55:54;42.50;63.00
11824;DHT22;5969;50.780;7.726;2023-07-08T14:58:24;44.00;60.50
11824;DHT22;5969;50.780;7.726;2023-07-08T15:00:53;43.70;61.20
11824;DHT22;5969;50.780;7.726;2023-07-08T15:03:23;43.50;60.50
11824;DHT22;5969;50.780;7.726;2023-07-08T15:05:50;42.90;61.20
11824;DHT22;5969;50.780;7.726;2023-07-08T15:08:17;43.60;59.90
11824;DHT22;5969;50.780;7.726;2023-07-08T15:10:47;43.90;59.30
11824;DHT22;5969;50.780;7.726;2023-07-08T15:13:15;43.30;61.00
11824;DHT22;5969;50.780;7.726;2023-07-08T15:15:43;43.60;62.30
11824;DHT22;5969;50.780;7.726;2023-07-08T15:18:11;43.80;59.70
11824;DHT22;5969;50.780;7.726;2023-07-08T15:20:41;43.50;60.70
11824;DHT22;5969;50.780;7.726;2023-07-08T15:23:09;43.50;59.30
11824;DHT22;5969;50.780;7.726;2023-07-08T15:25:36;43.30;59.00
11824;DHT22;5969;50.780;7.726;2023-07-08T15:28:04;43.20;59.90
11824;DHT22;5969;50.780;7.726;2023-07-08T15:30:31;43.90;59.80
11824;DHT22;5969;50.780;7.726;2023-07-08T15:32:58;44.60;60.50
11824;DHT22;5969;50.780;7.726;2023-07-08T15:35:26;44.90;59.00
11824;DHT22;5969;50.780;7.726;2023-07-08T15:37:57;44.60;59.80
11824;DHT22;5969;50.780;7.726;2023-07-08T15:40:27;43.20;60.80
11824;DHT22;5969;50.780;7.726;2023-07-08T15:42:58;43.10;60.30
11824;DHT22;5969;50.780;7.726;2023-07-08T15:45:34;42.90;60.70
11824;DHT22;5969;50.780;7.726;2023-07-08T15:48:07;43.50;57.60
11824;DHT22;5969;50.780;7.726;2023-07-08T15:50:38;43.60;59.80
11824;DHT22;5969;50.780;7.726;2023-07-08T15:53:07;42.60;58.60
11824;DHT22;5969;50.780;7.726;2023-07-08T15:55:35;41.30;61.10
11824;DHT22;5969;50.780;7.726;2023-07-08T15:58:05;41.20;60.20
11824;DHT22;5969;50.780;7.726;2023-07-08T16:00:37;40.80;61.50
11824;DHT22;5969;50.780;7.726;2023-07-08T16:03:07;40.80;62.30
11824;DHT22;5969;50.780;7.726;2023-07-08T16:05:35;41.80;61.00
11824;DHT22;5969;50.780;7.726;2023-07-08T16:08:03;42.80;60.60